Time;durP1;ratioP1;P1;durP2;ratioP2;P2;SDS_P1;SDS_P2;PMS_P1;PMS_P2;Temp;Humidity;BMP_temperature;BMP_pressure;BME280_temperature;BME280_humidity;BME280_pressure;Samples;Min_cycle;Max_cycle;Signal;HPM_P1;HPM_P2
2021/07/16 00:00:29;;;;;;;1.27;0.60;;;16.80;99.90;;;;;;5072679;28;20186;-69
2021/07/16 00:02:57;;;;;;;1.60;0.60;;;16.80;99.90;;;;;;5072256;28;20213;-68
2021/07/16 00:05:25;;;;;;;1.00;0.60;;;16.90;99.90;;;;;;5070951;28;20652;-74
2021/07/16 00:07:52;;;;;;;1.90;0.60;;;16.90;99.90;;;;;;5071504;28;20192;-75
2021/07/16 00:10:21;;;;;;;1.03;0.60;;;17.00;99.90;;;;;;5071586;28;20592;-76
2021/07/16 00:12:50;;;;;;;1.90;0.80;;;17.00;99.90;;;;;;5072705;28;20220;-74
2021/07/16 00:15:20;;;;;;;1.67;0.90;;;17.00;99.90;;;;;;5071194;28;20186;-70
2021/07/16 00:17:47;;;;;;;0.80;0.73;;;17.20;99.90;;;;;;5072341;28;20184;-74
2021/07/16 00:20:16;;;;;;;1.03;0.70;;;17.20;99.90;;;;;;5071747;28;20178;-70
2021/07/16 00:22:43;;;;;;;2.40;0.63;;;17.20;99.90;;;;;;5071172;28;20217;-69
2021/07/16 00:25:11;;;;;;;2.80;1.00;;;17.20;99.90;;;;;;5072363;28;20178;-69
2021/07/16 00:27:39;;;;;;;0.60;0.57;;;17.30;99.90;;;;;;5068951;28;20183;-75
2021/07/16 00:30:10;;;;;;;1.03;0.67;;;17.40;99.90;;;;;;5071503;28;20693;-71
2021/07/16 00:32:38;;;;;;;3.33;0.80;;;17.50;99.90;;;;;;5066916;28;20214;-70
2021/07/16 00:35:07;;;;;;;1.53;0.97;;;17.50;99.90;;;;;;5070627;28;20276;-72
2021/07/16 00:37:34;;;;;;;1.80;1.03;;;17.60;99.90;;;;;;5071748;28;20175;-70
2021/07/16 00:40:05;;;;;;;0.83;0.60;;;17.80;99.90;;;;;;5053858;28;20228;-69
2021/07/16 00:42:32;;;;;;;1.40;0.60;;;17.70;99.90;;;;;;5062986;28;20683;-69
2021/07/16 00:45:00;;;;;;;2.57;0.90;;;17.80;99.90;;;;;;5074162;28;20198;-71
2021/07/16 00:47:27;;;;;;;1.80;1.20;;;17.90;99.90;;;;;;5070292;28;20266;-72
2021/07/16 00:49:54;;;;;;;3.70;0.60;;;17.90;99.90;;;;;;5072138;28;20724;-69
2021/07/16 00:52:22;;;;;;;1.73;0.80;;;17.80;99.90;;;;;;5076161;28;20224;-69
2021/07/16 00:54:50;;;;;;;1.07;0.60;;;17.80;99.90;;;;;;5075533;28;20227;-68
2021/07/16 00:57:18;;;;;;;2.77;0.83;;;17.90;99.90;;;;;;5074975;28;20188;-70
2021/07/16 00:59:46;;;;;;;2.80;0.70;;;17.90;99.90;;;;;;5075082;28;20238;-74
2021/07/16 01:02:14;;;;;;;1.67;0.80;;;18.00;99.90;;;;;;5057362;28;20558;-74
2021/07/16 01:04:41;;;;;;;5.60;0.80;;;18.00;99.90;;;;;;5075330;28;20269;-69
2021/07/16 01:07:09;;;;;;;5.53;0.90;;;18.10;99.90;;;;;;5075303;28;20347;-71
2021/07/16 01:09:37;;;;;;;1.00;0.70;;;18.20;99.90;;;;;;5074326;28;20295;-74
2021/07/16 01:12:07;;;;;;;1.00;0.53;;;18.40;99.90;;;;;;5074438;28;20278;-69
2021/07/16 01:14:34;;;;;;;0.63;0.60;;;18.50;99.90;;;;;;5057589;28;20230;-69
2021/07/16 01:17:02;;;;;;;2.73;0.60;;;18.50;99.90;;;;;;5072966;28;20552;-69
2021/07/16 01:20:00;;;;;;;0.33;0.33;;;18.40;99.70;;;;;;5068187;28;20202;-70
2021/07/16 01:22:29;;;;;;;0.90;0.50;;;18.30;99.90;;;;;;5074834;28;20215;-74
2021/07/16 01:24:58;;;;;;;1.70;0.50;;;18.50;99.40;;;;;;5073519;28;20191;-74
2021/07/16 01:27:26;;;;;;;3.50;0.50;;;18.70;99.00;;;;;;5062503;28;20175;-71
2021/07/16 01:29:54;;;;;;;0.83;0.50;;;18.80;98.40;;;;;;5075331;28;20168;-72
2021/07/16 01:32:22;;;;;;;3.43;0.77;;;18.80;98.00;;;;;;5074805;28;20211;-74
2021/07/16 01:34:49;;;;;;;0.73;0.50;;;18.90;98.00;;;;;;5074701;28;20649;-73
2021/07/16 01:37:17;;;;;;;1.97;0.60;;;18.90;97.10;;;;;;5069800;28;20190;-75
2021/07/16 01:39:44;;;;;;;4.20;0.57;;;19.00;97.60;;;;;;5074605;28;20262;-71
2021/07/16 01:42:13;;;;;;;0.77;0.50;;;19.10;97.30;;;;;;5074410;28;20725;-72
2021/07/16 01:44:42;;;;;;;1.13;0.50;;;19.10;97.00;;;;;;5066872;28;20221;-70
2021/07/16 01:47:11;;;;;;;0.73;0.70;;;19.20;97.00;;;;;;5074394;28;20190;-73
2021/07/16 01:49:38;;;;;;;0.90;0.57;;;19.30;96.20;;;;;;5072327;28;20190;-70
2021/07/16 01:52:06;;;;;;;1.13;0.43;;;19.30;96.20;;;;;;5072897;28;20218;-74
2021/07/16 01:54:33;;;;;;;0.40;0.40;;;19.50;95.80;;;;;;5074592;28;20167;-69
2021/07/16 01:57:02;;;;;;;0.70;0.40;;;19.30;95.50;;;;;;5075039;28;20661;-70
2021/07/16 01:59:32;;;;;;;2.67;0.50;;;19.40;96.10;;;;;;5075032;28;20194;-69
2021/07/16 02:02:00;;;;;;;1.37;0.50;;;19.50;96.00;;;;;;5072124;28;20584;-74
2021/07/16 02:04:27;;;;;;;0.83;0.40;;;19.60;94.90;;;;;;5074347;28;20177;-79
2021/07/16 02:06:56;;;;;;;2.50;0.60;;;19.70;94.80;;;;;;5074473;28;20236;-77
2021/07/16 02:09:23;;;;;;;1.53;0.50;;;19.60;94.90;;;;;;5073215;28;20180;-69
2021/07/16 02:11:51;;;;;;;0.50;0.40;;;19.50;93.10;;;;;;5063712;28;20210;-72
2021/07/16 02:14:18;;;;;;;0.83;0.40;;;19.20;93.90;;;;;;5068594;28;20178;-70
2021/07/16 02:16:45;;;;;;;0.40;0.40;;;18.80;94.10;;;;;;5074432;28;20651;-70
2021/07/16 02:19:12;;;;;;;3.30;0.50;;;18.70;94.30;;;;;;5074599;28;20619;-70
2021/07/16 02:21:40;;;;;;;0.47;0.40;;;18.40;95.40;;;;;;5068695;28;20182;-68
2021/07/16 02:24:07;;;;;;;3.63;0.70;;;18.30;95.70;;;;;;5057358;28;20317;-73
2021/07/16 02:26:37;;;;;;;4.40;0.50;;;18.00;95.40;;;;;;5066400;28;20189;-70
2021/07/16 02:29:05;;;;;;;2.23;0.57;;;17.90;99.10;;;;;;5058146;28;20207;-70
2021/07/16 02:31:33;;;;;;;4.07;0.80;;;17.40;99.90;;;;;;5073615;28;20222;-73
2021/07/16 02:34:00;;;;;;;2.77;0.60;;;17.00;99.90;;;;;;5071312;28;20201;-77
2021/07/16 02:36:28;;;;;;;2.10;0.60;;;16.80;99.90;;;;;;5055995;28;20553;-70
2021/07/16 02:38:56;;;;;;;1.87;0.80;;;16.70;99.90;;;;;;5071795;28;20181;-72
2021/07/16 02:41:23;;;;;;;0.77;0.60;;;15.60;99.90;;;;;;5073527;28;20175;-73
2021/07/16 02:43:50;;;;;;;2.87;0.70;;;14.60;99.90;;;;;;5072800;28;20179;-71
2021/07/16 02:46:18;;;;;;;0.97;0.50;;;14.30;99.90;;;;;;5069560;28;20651;-71
2021/07/16 02:48:45;;;;;;;7.37;0.60;;;14.30;99.90;;;;;;5073695;28;20191;-71
2021/07/16 02:51:12;;;;;;;1.77;0.57;;;14.30;99.90;;;;;;5068407;28;20764;-71
2021/07/16 02:53:40;;;;;;;0.70;0.40;;;14.20;99.90;;;;;;5065498;28;20535;-69
2021/07/16 02:56:07;;;;;;;3.97;0.50;;;14.00;99.90;;;;;;5072537;28;20250;-73
2021/07/16 02:58:34;;;;;;;1.33;0.40;;;14.10;99.90;;;;;;5071954;28;20171;-77
2021/07/16 03:01:02;;;;;;;0.80;0.40;;;14.60;99.90;;;;;;5076264;28;20315;-74
2021/07/16 03:03:29;;;;;;;2.93;0.70;;;15.10;99.90;;;;;;5074141;28;20248;-72
2021/07/16 03:05:56;;;;;;;2.70;0.50;;;15.60;99.90;;;;;;5073905;28;20263;-71
2021/07/16 03:08:24;;;;;;;2.73;0.67;;;16.00;99.90;;;;;;5073485;28;20524;-67
2021/07/16 03:10:51;;;;;;;1.80;0.60;;;16.10;99.90;;;;;;5073021;28;20266;-73
2021/07/16 03:13:19;;;;;;;1.90;0.43;;;16.30;99.90;;;;;;5068971;28;20204;-71
2021/07/16 03:15:47;;;;;;;1.47;0.50;;;16.50;99.90;;;;;;5063166;28;20272;-74
2021/07/16 03:18:16;;;;;;;2.10;0.90;;;16.70;99.90;;;;;;5072247;28;20178;-73
2021/07/16 03:20:45;;;;;;;0.33;0.30;;;17.00;99.90;;;;;;5071774;28;20538;-71
2021/07/16 03:23:14;;;;;;;3.60;0.50;;;17.30;99.90;;;;;;5076770;28;20250;-73
2021/07/16 03:25:42;;;;;;;1.43;0.57;;;17.40;98.90;;;;;;5070619;28;20193;-69
2021/07/16 03:28:11;;;;;;;0.50;0.50;;;17.20;98.90;;;;;;5053857;28;20190;-71
2021/07/16 03:30:40;;;;;;;3.37;0.50;;;17.30;98.70;;;;;;5075232;28;20546;-73
2021/07/16 03:33:07;;;;;;;2.67;0.60;;;17.50;98.70;;;;;;5086604;28;20250;-72
2021/07/16 03:35:35;;;;;;;1.30;0.70;;;17.70;98.80;;;;;;5071602;28;20183;-72
2021/07/16 03:38:03;;;;;;;0.90;0.50;;;17.80;98.50;;;;;;5061773;28;20194;-70
2021/07/16 03:40:31;;;;;;;1.47;0.50;;;17.80;97.90;;;;;;5072654;28;20179;-74
2021/07/16 03:43:00;;;;;;;0.40;0.40;;;18.00;98.20;;;;;;5068317;28;20179;-73
2021/07/16 03:45:28;;;;;;;0.93;0.57;;;17.70;97.80;;;;;;5072749;28;20194;-73
2021/07/16 03:47:56;;;;;;;0.93;0.40;;;17.90;96.20;;;;;;5071473;28;20240;-68
2021/07/16 03:50:24;;;;;;;0.90;0.50;;;18.00;95.70;;;;;;5071895;28;20187;-72
2021/07/16 03:52:52;;;;;;;2.40;0.53;;;18.00;95.70;;;;;;5069876;28;20215;-71
2021/07/16 03:55:21;;;;;;;2.40;0.73;;;17.80;96.30;;;;;;5063971;28;20205;-72
2021/07/16 03:57:50;;;;;;;0.40;0.40;;;17.60;96.90;;;;;;5067755;28;20215;-77
2021/07/16 04:00:26;;;;;;;2.03;0.80;;;17.80;96.60;;;;;;5071177;28;20183;-72
2021/07/16 04:02:54;;;;;;;1.57;0.50;;;17.80;96.30;;;;;;5068074;28;20257;-71
2021/07/16 04:05:21;;;;;;;2.40;0.87;;;18.10;95.60;;;;;;5070205;28;20190;-75
2021/07/16 04:07:50;;;;;;;1.53;0.70;;;18.20;95.90;;;;;;5071508;28;20194;-72
2021/07/16 04:10:20;;;;;;;1.10;0.50;;;18.40;95.80;;;;;;5071273;28;20793;-71
2021/07/16 04:12:56;;;;;;;1.77;0.70;;;18.80;95.10;;;;;;5071839;28;20750;-70
2021/07/16 04:15:26;;;;;;;0.90;0.50;;;18.70;94.40;;;;;;5067544;28;20190;-73
2021/07/16 04:17:55;;;;;;;1.27;0.57;;;18.90;93.60;;;;;;5072247;28;20524;-70
2021/07/16 04:20:23;;;;;;;1.23;0.50;;;18.50;91.40;;;;;;5069845;28;20182;-68
2021/07/16 04:22:51;;;;;;;6.20;0.70;;;18.60;91.90;;;;;;5072564;28;20716;-69
2021/07/16 04:25:18;;;;;;;1.33;0.60;;;18.80;91.40;;;;;;5073738;28;20201;-75
2021/07/16 04:27:51;;;;;;;1.73;0.60;;;18.70;91.10;;;;;;5075091;28;20190;-76
2021/07/16 04:30:21;;;;;;;6.67;0.80;;;18.60;90.70;;;;;;5074923;28;20338;-74
2021/07/16 04:32:49;;;;;;;1.47;0.60;;;18.60;89.60;;;;;;5074674;28;20335;-73
2021/07/16 04:35:17;;;;;;;1.20;0.60;;;18.80;89.60;;;;;;5074503;28;20246;-72
2021/07/16 04:37:45;;;;;;;0.80;0.50;;;19.10;89.10;;;;;;5069600;28;20270;-76
2021/07/16 04:40:19;;;;;;;2.00;0.80;;;19.00;85.50;;;;;;5075270;28;20211;-75
2021/07/16 04:42:48;;;;;;;1.30;0.70;;;19.10;84.00;;;;;;5074311;28;20175;-70
2021/07/16 04:45:15;;;;;;;1.70;0.50;;;19.40;82.20;;;;;;5071085;28;20203;-70
2021/07/16 04:47:43;;;;;;;3.03;0.87;;;19.30;81.80;;;;;;5072577;28;20545;-70
2021/07/16 04:50:12;;;;;;;1.63;0.70;;;19.60;80.30;;;;;;5073364;28;20183;-71
2021/07/16 04:52:45;;;;;;;2.20;0.50;;;19.60;78.90;;;;;;5072936;28;20211;-76
2021/07/16 04:55:14;;;;;;;6.57;0.73;;;19.50;78.40;;;;;;5074208;28;20191;-70
2021/07/16 04:57:41;;;;;;;4.20;0.60;;;19.60;77.90;;;;;;5074678;28;20629;-72
2021/07/16 05:00:11;;;;;;;1.67;0.60;;;19.50;78.10;;;;;;5073325;28;20214;-73
2021/07/16 05:02:39;;;;;;;1.87;0.50;;;19.80;77.60;;;;;;5074126;28;20186;-72
2021/07/16 05:05:10;;;;;;;1.03;0.53;;;19.70;76.80;;;;;;5070278;28;20262;-70
2021/07/16 05:07:40;;;;;;;1.37;0.50;;;19.80;75.70;;;;;;5073882;28;20197;-74
2021/07/16 05:10:08;;;;;;;2.30;0.50;;;19.50;73.60;;;;;;5060583;28;20187;-76
2021/07/16 05:12:40;;;;;;;3.70;0.80;;;19.50;73.70;;;;;;5055136;28;20242;-69
2021/07/16 05:15:09;;;;;;;4.07;0.57;;;19.50;73.40;;;;;;5059959;28;20179;-70
2021/07/16 05:17:37;;;;;;;0.40;0.40;;;19.30;72.40;;;;;;5074380;28;20202;-71
2021/07/16 05:20:06;;;;;;;4.60;0.60;;;19.40;72.10;;;;;;5072801;28;20221;-72
2021/07/16 05:22:34;;;;;;;9.13;1.00;;;19.30;73.40;;;;;;5070057;28;20677;-72
2021/07/16 05:25:03;;;;;;;1.43;0.40;;;19.40;71.50;;;;;;5051659;28;20249;-75
2021/07/16 05:27:31;;;;;;;7.73;0.90;;;19.10;71.10;;;;;;5051447;28;20217;-75
2021/07/16 05:30:01;;;;;;;1.97;0.53;;;18.90;71.30;;;;;;5051835;28;20522;-73
2021/07/16 05:32:28;;;;;;;2.77;0.60;;;18.80;71.80;;;;;;5053840;28;20610;-71
2021/07/16 05:34:56;;;;;;;4.40;0.70;;;18.70;71.90;;;;;;5053598;28;20196;-68
2021/07/16 05:37:23;;;;;;;2.67;0.97;;;18.80;72.30;;;;;;5052588;28;20226;-75
2021/07/16 05:39:50;;;;;;;1.33;0.60;;;19.20;72.70;;;;;;5053825;28;20187;-75
2021/07/16 05:42:18;;;;;;;4.10;0.60;;;19.20;72.00;;;;;;5053446;28;20196;-77
2021/07/16 05:44:46;;;;;;;4.67;0.73;;;19.00;73.00;;;;;;5053921;28;20661;-79
2021/07/16 05:47:14;;;;;;;7.10;0.63;;;19.10;72.60;;;;;;5053081;28;20286;-71
2021/07/16 05:49:41;;;;;;;5.23;1.00;;;18.60;73.10;;;;;;5049375;28;20188;-74
2021/07/16 05:52:08;;;;;;;5.07;0.83;;;18.70;73.90;;;;;;5052603;28;20211;-73
2021/07/16 05:54:36;;;;;;;0.93;0.47;;;18.70;73.20;;;;;;5053808;28;20577;-72
2021/07/16 05:57:03;;;;;;;6.97;0.80;;;18.50;73.50;;;;;;5052989;28;20187;-71
2021/07/16 05:59:31;;;;;;;3.67;0.40;;;18.60;74.00;;;;;;5050356;28;20176;-70
2021/07/16 06:01:59;;;;;;;6.60;0.70;;;18.60;74.40;;;;;;5053316;28;20194;-72
2021/07/16 06:04:26;;;;;;;1.03;0.60;;;18.50;74.50;;;;;;5056440;28;20198;-73
2021/07/16 06:06:54;;;;;;;2.80;0.70;;;18.60;73.60;;;;;;5054663;28;20217;-72
2021/07/16 06:09:21;;;;;;;1.30;0.50;;;18.50;74.40;;;;;;5057960;28;20180;-74
2021/07/16 06:11:48;;;;;;;1.87;0.80;;;18.40;74.00;;;;;;5038736;28;20244;-73
2021/07/16 06:14:16;;;;;;;8.27;1.00;;;18.20;75.30;;;;;;5053364;28;20198;-73
2021/07/16 06:16:43;;;;;;;3.20;0.60;;;17.90;76.30;;;;;;5053295;28;20186;-74
2021/07/16 06:19:10;;;;;;;1.47;0.50;;;17.70;78.00;;;;;;5054090;28;20273;-73
2021/07/16 06:21:38;;;;;;;7.10;0.80;;;17.40;78.20;;;;;;5040446;28;20534;-74
2021/07/16 06:24:06;;;;;;;3.57;0.70;;;17.30;79.10;;;;;;5070932;28;20291;-75
2021/07/16 06:26:35;;;;;;;1.20;0.77;;;17.10;80.40;;;;;;5065031;28;20277;-72
2021/07/16 06:29:04;;;;;;;2.90;0.90;;;16.90;81.20;;;;;;5067620;28;20184;-76
2021/07/16 06:31:32;;;;;;;0.80;0.50;;;16.80;81.90;;;;;;5058216;28;20534;-71
2021/07/16 06:34:01;;;;;;;6.57;0.67;;;16.70;82.40;;;;;;5070691;28;20194;-73
2021/07/16 06:36:31;;;;;;;4.07;0.57;;;16.60;82.90;;;;;;5072705;28;20278;-69
2021/07/16 06:38:58;;;;;;;1.43;0.60;;;16.50;82.50;;;;;;5070991;28;20309;-72
2021/07/16 06:41:26;;;;;;;1.20;0.50;;;16.40;83.50;;;;;;5055635;28;20202;-72
2021/07/16 06:43:54;;;;;;;1.33;0.60;;;16.30;84.40;;;;;;5073923;28;20182;-71
2021/07/16 06:46:22;;;;;;;0.83;0.40;;;16.20;85.70;;;;;;5070428;28;20207;-74
2021/07/16 06:48:49;;;;;;;6.00;0.80;;;16.10;86.60;;;;;;5052858;28;20195;-70
2021/07/16 06:51:17;;;;;;;2.60;0.77;;;16.00;87.80;;;;;;5067766;28;20250;-77
2021/07/16 06:53:45;;;;;;;3.03;0.50;;;15.90;88.30;;;;;;5073485;28;20649;-71
2021/07/16 06:56:12;;;;;;;1.30;0.63;;;15.80;88.30;;;;;;5055156;28;20198;-76
2021/07/16 06:58:39;;;;;;;3.03;0.73;;;15.70;88.70;;;;;;5056114;28;20207;-76
2021/07/16 07:01:07;;;;;;;0.97;0.40;;;15.60;89.80;;;;;;5073028;28;20183;-75
2021/07/16 07:03:35;;;;;;;1.80;0.43;;;15.60;90.10;;;;;;5069661;28;20215;-73
2021/07/16 07:06:04;;;;;;;2.33;0.67;;;15.50;90.50;;;;;;5067415;28;20176;-72
2021/07/16 07:08:32;;;;;;;2.57;0.60;;;15.40;90.90;;;;;;5071105;28;20270;-70
2021/07/16 07:10:59;;;;;;;1.43;0.73;;;15.30;91.20;;;;;;5072003;28;20266;-75
2021/07/16 07:13:26;;;;;;;2.30;0.60;;;15.30;91.50;;;;;;5072088;28;20211;-72
2021/07/16 07:15:54;;;;;;;2.13;0.80;;;15.20;91.80;;;;;;5072691;28;20172;-72
2021/07/16 07:18:21;;;;;;;4.80;0.80;;;15.10;92.00;;;;;;5071742;28;20207;-71
2021/07/16 07:20:48;;;;;;;6.77;0.60;;;15.10;92.30;;;;;;5072792;28;20175;-70
2021/07/16 07:23:16;;;;;;;1.17;0.63;;;15.10;92.60;;;;;;5059379;28;20245;-74
2021/07/16 07:25:43;;;;;;;1.73;0.50;;;15.00;92.80;;;;;;5071029;28;20190;-74
2021/07/16 07:28:11;;;;;;;1.23;0.60;;;14.90;93.10;;;;;;5072747;28;20188;-73
2021/07/16 07:30:38;;;;;;;2.97;0.77;;;14.90;93.70;;;;;;5071395;28;20179;-70
2021/07/16 07:33:06;;;;;;;6.23;0.50;;;14.90;94.00;;;;;;5060921;28;20216;-74
2021/07/16 07:35:35;;;;;;;3.63;0.70;;;14.80;94.30;;;;;;5072535;28;20250;-74
2021/07/16 07:38:03;;;;;;;1.17;0.53;;;14.70;95.10;;;;;;5070730;28;20248;-75
2021/07/16 07:40:31;;;;;;;2.57;0.70;;;14.60;95.60;;;;;;5073535;28;20183;-78
2021/07/16 07:43:03;;;;;;;0.60;0.60;;;14.60;95.80;;;;;;5073186;28;20183;-70
2021/07/16 07:45:31;;;;;;;2.60;0.70;;;14.60;95.60;;;;;;5042053;28;20186;-69
2021/07/16 07:47:59;;;;;;;1.93;0.80;;;14.50;96.00;;;;;;5072378;28;20716;-71
2021/07/16 07:50:27;;;;;;;2.73;0.90;;;14.50;96.00;;;;;;5072649;28;20183;-74
2021/07/16 07:52:54;;;;;;;1.30;0.60;;;14.50;96.40;;;;;;5072591;28;20235;-76
2021/07/16 07:55:24;;;;;;;2.30;0.80;;;14.40;96.70;;;;;;5070199;28;20179;-72
2021/07/16 07:57:54;;;;;;;1.73;0.70;;;14.40;96.50;;;;;;5056955;28;20349;-80
2021/07/16 08:00:25;;;;;;;2.80;0.97;;;14.40;96.30;;;;;;5068069;28;20191;-74
2021/07/16 08:02:52;;;;;;;3.03;0.67;;;14.40;96.40;;;;;;5068427;28;20198;-72
2021/07/16 08:05:22;;;;;;;1.57;0.70;;;14.40;96.20;;;;;;5072211;28;20201;-73
2021/07/16 08:07:49;;;;;;;1.57;0.87;;;14.40;96.00;;;;;;5071862;28;20238;-75
2021/07/16 08:10:22;;;;;;;2.53;0.73;;;14.30;96.50;;;;;;5071074;28;20175;-70
2021/07/16 08:12:50;;;;;;;4.27;1.00;;;14.30;96.30;;;;;;5071568;28;20203;-77
2021/07/16 08:15:18;;;;;;;1.40;0.80;;;14.30;96.40;;;;;;5071186;28;20186;-71
2021/07/16 08:17:46;;;;;;;1.73;0.70;;;14.30;96.50;;;;;;5067757;28;20191;-72
2021/07/16 08:20:13;;;;;;;3.03;0.90;;;14.20;96.40;;;;;;5071005;28;20183;-76
2021/07/16 08:22:42;;;;;;;1.83;0.50;;;14.30;96.20;;;;;;5073204;28;20261;-74
2021/07/16 08:25:11;;;;;;;1.50;0.60;;;14.30;96.30;;;;;;5079534;28;20181;-72
2021/07/16 08:27:41;;;;;;;1.77;0.60;;;14.30;96.70;;;;;;5073653;28;20233;-73
2021/07/16 08:30:09;;;;;;;1.00;0.70;;;14.20;96.70;;;;;;5071451;28;20167;-71
2021/07/16 08:32:37;;;;;;;1.90;0.77;;;14.20;97.00;;;;;;5081892;28;20217;-71
2021/07/16 08:35:06;;;;;;;1.43;0.90;;;14.20;97.00;;;;;;5058397;28;20175;-74
2021/07/16 08:37:34;;;;;;;1.47;0.90;;;14.20;97.10;;;;;;5071657;28;20571;-73
2021/07/16 08:40:02;;;;;;;2.97;0.77;;;14.20;97.10;;;;;;5055500;28;20200;-75
2021/07/16 08:42:30;;;;;;;8.70;1.03;;;14.20;97.20;;;;;;5075970;28;20191;-69
2021/07/16 08:44:57;;;;;;;3.30;0.90;;;14.20;97.00;;;;;;5077706;28;20182;-73
2021/07/16 08:47:25;;;;;;;0.83;0.60;;;14.10;97.10;;;;;;5067727;28;20178;-75
2021/07/16 08:49:54;;;;;;;0.50;0.50;;;14.10;96.80;;;;;;5054301;28;20285;-76
2021/07/16 08:52:23;;;;;;;4.37;0.70;;;14.10;97.10;;;;;;5059517;28;20195;-72
2021/07/16 08:54:51;;;;;;;7.67;0.63;;;14.10;97.20;;;;;;5071927;28;20209;-75
2021/07/16 08:57:19;;;;;;;0.70;0.60;;;14.00;97.50;;;;;;5072151;28;20636;-71
2021/07/16 08:59:46;;;;;;;1.03;0.53;;;14.00;97.80;;;;;;5079144;28;20263;-77
2021/07/16 09:02:14;;;;;;;0.80;0.67;;;14.00;98.20;;;;;;5071452;28;20183;-71
2021/07/16 09:04:43;;;;;;;0.90;0.50;;;14.00;97.80;;;;;;5073291;28;20184;-74
2021/07/16 09:07:10;;;;;;;2.40;0.60;;;14.00;98.10;;;;;;5065944;28;20191;-69
2021/07/16 09:09:39;;;;;;;2.40;0.57;;;13.90;98.30;;;;;;5071739;28;20194;-72
2021/07/16 09:12:12;;;;;;;1.10;0.60;;;13.90;98.20;;;;;;5073945;28;20211;-71
2021/07/16 09:14:41;;;;;;;2.40;0.50;;;14.00;98.10;;;;;;5073979;28;20175;-68
2021/07/16 09:17:11;;;;;;;1.30;0.60;;;13.90;98.50;;;;;;5066109;28;20535;-73
2021/07/16 09:19:51;;;;;;;1.60;0.57;;;13.80;98.70;;;;;;5083332;28;20186;-77
2021/07/16 09:22:25;;;;;;;1.67;0.50;;;13.90;98.60;;;;;;5061169;28;20262;-75
2021/07/16 09:25:04;;;;;;;1.03;0.57;;;13.90;98.60;;;;;;5070127;28;20182;-73
2021/07/16 09:27:35;;;;;;;1.90;0.60;;;14.00;98.30;;;;;;5075433;28;20210;-71
2021/07/16 09:30:23;;;;;;;1.00;0.90;;;14.00;98.20;;;;;;5074323;28;20187;-73
2021/07/16 09:32:55;;;;;;;1.43;0.60;;;14.00;98.60;;;;;;5062947;28;20234;-73
2021/07/16 09:35:34;;;;;;;0.80;0.50;;;14.00;98.30;;;;;;5068784;28;20180;-76
2021/07/16 09:38:06;;;;;;;1.00;0.70;;;14.00;98.30;;;;;;5063855;28;20668;-72
2021/07/16 09:40:42;;;;;;;3.40;0.60;;;14.00;98.40;;;;;;5074672;28;20183;-74
2021/07/16 09:43:16;;;;;;;2.73;0.63;;;14.00;98.40;;;;;;5062014;28;20498;-70
2021/07/16 09:45:53;;;;;;;1.47;0.70;;;14.00;98.30;;;;;;5075180;28;20262;-76
2021/07/16 09:48:34;;;;;;;0.60;0.60;;;14.00;98.40;;;;;;5083893;28;20190;-73
2021/07/16 09:51:27;;;;;;;2.00;0.60;;;14.10;98.20;;;;;;5072729;28;20180;-75
2021/07/16 09:53:58;;;;;;;0.63;0.63;;;14.10;98.30;;;;;;5074458;28;20236;-70
2021/07/16 09:56:27;;;;;;;3.00;0.80;;;14.00;98.60;;;;;;5055981;28;20718;-76
2021/07/16 09:59:08;;;;;;;0.80;0.60;;;14.00;98.50;;;;;;5074591;28;20324;-70
2021/07/16 10:01:41;;;;;;;1.20;0.50;;;14.00;98.60;;;;;;5071064;28;20232;-76
2021/07/16 10:04:20;;;;;;;0.73;0.40;;;14.00;98.50;;;;;;5074191;28;20221;-74
2021/07/16 10:06:50;;;;;;;2.77;0.50;;;14.00;98.40;;;;;;5072041;28;20262;-73
2021/07/16 10:09:19;;;;;;;1.03;0.50;;;14.00;98.60;;;;;;5072275;28;20324;-69
2021/07/16 10:11:51;;;;;;;0.77;0.40;;;14.00;98.50;;;;;;5073625;28;20269;-77
2021/07/16 10:14:19;;;;;;;6.27;0.63;;;13.90;98.70;;;;;;5066932;28;20190;-75
2021/07/16 10:16:48;;;;;;;1.27;0.80;;;13.90;98.70;;;;;;5073807;28;20215;-73
2021/07/16 10:19:17;;;;;;;1.60;0.50;;;13.90;98.70;;;;;;5055894;28;20179;-74
2021/07/16 10:21:49;;;;;;;0.60;0.40;;;13.90;98.80;;;;;;5073714;28;20191;-72
2021/07/16 10:24:23;;;;;;;0.60;0.33;;;13.80;98.90;;;;;;5056371;28;20324;-74
2021/07/16 10:26:53;;;;;;;1.70;0.40;;;13.90;98.70;;;;;;5070918;28;20183;-76
2021/07/16 10:29:47;;;;;;;0.93;0.50;;;13.80;98.60;;;;;;5074459;28;20229;-78
2021/07/16 10:32:48;;;;;;;1.37;0.50;;;13.90;98.40;;;;;;5045426;28;20257;-73
2021/07/16 10:35:24;;;;;;;0.67;0.50;;;13.80;98.60;;;;;;5074123;28;20197;-79
2021/07/16 10:38:00;;;;;;;2.30;0.80;;;13.80;98.60;;;;;;5056521;28;20214;-76
2021/07/16 10:40:44;;;;;;;1.13;0.60;;;13.80;98.60;;;;;;5073615;28;20269;-71
2021/07/16 10:43:24;;;;;;;2.33;0.70;;;13.80;98.60;;;;;;5073668;28;20183;-76
2021/07/16 10:45:52;;;;;;;1.80;0.70;;;13.70;98.60;;;;;;5073651;28;20183;-70
2021/07/16 10:48:22;;;;;;;0.87;0.70;;;13.70;98.90;;;;;;5069099;28;20197;-70
2021/07/16 10:50:52;;;;;;;2.13;0.77;;;13.70;98.80;;;;;;5067627;28;20175;-81
2021/07/16 10:53:40;;;;;;;2.00;0.87;;;13.70;98.40;;;;;;5073006;28;20218;-73
2021/07/16 10:56:10;;;;;;;1.23;0.53;;;13.80;97.90;;;;;;5073585;28;20180;-76
2021/07/16 10:58:39;;;;;;;2.77;0.67;;;13.80;97.40;;;;;;5073129;28;20419;-71
2021/07/16 11:01:07;;;;;;;2.33;0.80;;;13.80;97.10;;;;;;5073494;28;20523;-72
2021/07/16 11:03:50;;;;;;;2.10;0.83;;;13.80;97.20;;;;;;5073071;28;20254;-71
2021/07/16 11:06:21;;;;;;;3.27;0.60;;;13.70;97.50;;;;;;5068710;28;20646;-72
2021/07/16 11:08:49;;;;;;;2.50;1.10;;;13.70;97.00;;;;;;5073607;28;20695;-72
2021/07/16 11:11:38;;;;;;;4.07;2.03;;;13.70;97.20;;;;;;5073220;28;20533;-72
2021/07/16 11:14:07;;;;;;;2.60;1.50;;;13.70;97.00;;;;;;5061301;28;20179;-72
2021/07/16 11:16:41;;;;;;;2.40;0.80;;;13.70;96.70;;;;;;5073029;28;20179;-73
2021/07/16 11:19:08;;;;;;;1.70;0.80;;;13.70;96.40;;;;;;5073086;28;20181;-74
2021/07/16 11:21:49;;;;;;;0.70;0.57;;;13.70;96.40;;;;;;5073180;28;20187;-76
2021/07/16 11:26:55;;;;;;;1.00;0.67;;;13.80;95.50;;;;;;5073431;28;20534;-69
2021/07/16 11:29:33;;;;;;;2.57;0.80;;;13.70;95.30;;;;;;5072784;28;20168;-73
2021/07/16 11:32:04;;;;;;;1.27;0.70;;;13.80;94.90;;;;;;5065565;28;20222;-71
2021/07/16 11:34:32;;;;;;;5.73;0.90;;;13.70;94.60;;;;;;5066155;28;20183;-71
2021/07/16 11:37:00;;;;;;;3.77;0.83;;;13.80;94.30;;;;;;5059086;28;20567;-69
2021/07/16 11:39:34;;;;;;;3.30;1.00;;;13.90;94.00;;;;;;5072074;28;20172;-70
2021/07/16 11:42:06;;;;;;;4.20;1.10;;;13.80;93.90;;;;;;5072992;28;20207;-73
2021/07/16 11:44:42;;;;;;;2.30;0.80;;;13.80;93.70;;;;;;5072872;28;20209;-73
2021/07/16 11:47:20;;;;;;;4.40;0.93;;;13.80;93.60;;;;;;5055394;28;20257;-70
2021/07/16 11:49:55;;;;;;;3.43;0.70;;;13.80;93.60;;;;;;5073279;28;20259;-70
2021/07/16 11:52:30;;;;;;;1.37;0.70;;;13.70;93.70;;;;;;5060252;28;20198;-74
2021/07/16 11:55:07;;;;;;;2.27;0.90;;;13.60;94.00;;;;;;5071358;28;20182;-71
2021/07/16 11:57:58;;;;;;;2.40;0.80;;;13.70;93.80;;;;;;5068711;28;20292;-73
2021/07/16 12:00:35;;;;;;;3.47;0.90;;;13.70;93.50;;;;;;5067488;28;20191;-70
2021/07/16 12:03:11;;;;;;;2.63;0.90;;;13.60;93.70;;;;;;5072257;28;20178;-73
2021/07/16 12:06:02;;;;;;;6.07;1.27;;;13.60;93.50;;;;;;5072167;28;20183;-71
2021/07/16 12:08:31;;;;;;;2.20;0.97;;;13.60;93.60;;;;;;5072840;28;20198;-71
2021/07/16 12:11:15;;;;;;;5.73;1.20;;;13.80;93.30;;;;;;5070400;28;20580;-71
2021/07/16 12:13:58;;;;;;;2.67;1.00;;;13.70;93.50;;;;;;5072045;28;20347;-75
2021/07/16 12:16:25;;;;;;;5.10;1.23;;;13.70;93.70;;;;;;5060566;28;20182;-75
2021/07/16 12:18:56;;;;;;;5.77;1.30;;;13.60;94.00;;;;;;5072924;28;20183;-73
2021/07/16 12:21:27;;;;;;;6.17;0.90;;;13.60;94.10;;;;;;5074137;28;20182;-74
2021/07/16 12:23:54;;;;;;;6.53;1.20;;;13.60;94.60;;;;;;5072042;28;20229;-77
2021/07/16 12:26:24;;;;;;;1.97;0.90;;;13.50;94.80;;;;;;5072117;28;20182;-78
2021/07/16 12:29:04;;;;;;;3.30;1.17;;;13.60;94.90;;;;;;5071304;28;20175;-73
2021/07/16 12:31:34;;;;;;;6.00;0.90;;;13.60;95.00;;;;;;5058745;28;20244;-73
2021/07/16 12:34:02;;;;;;;2.40;1.10;;;13.60;95.10;;;;;;5066139;28;20194;-70
2021/07/16 12:36:33;;;;;;;4.03;1.20;;;13.60;95.00;;;;;;5071951;28;20187;-72
2021/07/16 12:39:01;;;;;;;6.10;1.00;;;13.70;95.20;;;;;;5071563;28;20545;-71
2021/07/16 12:41:29;;;;;;;3.43;1.00;;;13.70;95.00;;;;;;5051673;28;20258;-72
2021/07/16 12:44:10;;;;;;;5.43;1.30;;;13.70;94.90;;;;;;5072150;28;20376;-72
2021/07/16 12:46:37;;;;;;;2.57;0.90;;;13.70;95.00;;;;;;5066786;28;20183;-72
2021/07/16 12:49:10;;;;;;;3.53;1.00;;;13.80;95.00;;;;;;5058105;28;20262;-70
2021/07/16 12:51:41;;;;;;;6.03;1.07;;;13.80;95.00;;;;;;5063546;28;20243;-70
2021/07/16 12:54:19;;;;;;;3.03;0.90;;;13.80;95.20;;;;;;5063051;28;20217;-72
2021/07/16 12:56:47;;;;;;;2.07;0.70;;;13.80;95.20;;;;;;5075668;28;20207;-70
2021/07/16 12:59:31;;;;;;;4.93;1.37;;;13.80;95.20;;;;;;5075687;28;20266;-72
2021/07/16 13:02:00;;;;;;;4.07;1.00;;;13.70;95.20;;;;;;5075165;28;20190;-71
2021/07/16 13:04:31;;;;;;;4.47;1.10;;;13.60;95.30;;;;;;5070212;28;20661;-72